METAR Data
IDs: Format: Raw Decoded Include TAF

Data at: 0235 UTC 19 Oct 2021

PATQ 181856Z AUTO 27007KT 10SM CLR M18/M20 A2992 RMK AO2 SLP137 T11831200 FZRANO TSNO
PATQ 181016Z AUTO 27004KT 9SM -SN OVC030 M09/M12 A2995 RMK AO2 P0000 FZRANO TSNO
PATQ 180913Z AUTO 31008KT 9SM -SN OVC028 M09/M12 A2994 RMK AO2 P0000 FZRANO TSNO